Time;durP1;ratioP1;P1;durP2;ratioP2;P2;SDS_P1;SDS_P2;PMS_P1;PMS_P2;Temp;Humidity;BMP_temperature;BMP_pressure;BME280_temperature;BME280_humidity;BME280_pressure;Samples;Min_cycle;Max_cycle;Signal;HPM_P1;HPM_P2
2023/03/23 05:35:27;;;;;;;8.45;2.05;;;10.40;99.90;;;;;;4762998;30;20545;-84
2023/03/23 05:37:53;;;;;;;9.88;1.95;;;10.50;99.90;;;;;;4763323;30;20079;-83
2023/03/23 05:40:20;;;;;;;9.73;1.60;;;10.50;99.90;;;;;;4730788;30;20040;-84
2023/03/23 05:42:47;;;;;;;11.48;2.45;;;10.50;99.90;;;;;;4761709;30;20048;-84
2023/03/23 05:45:12;;;;;;;11.73;1.85;;;10.60;99.90;;;;;;4758333;30;20111;-83
2023/03/23 05:47:39;;;;;;;8.63;1.70;;;10.60;99.90;;;;;;4763705;30;20035;-84
2023/03/23 05:50:08;;;;;;;9.63;2.03;;;10.60;99.90;;;;;;4763030;30;20527;-85
2023/03/23 05:52:35;;;;;;;14.30;2.47;;;10.60;99.90;;;;;;4765524;30;20044;-86
2023/03/23 05:55:03;;;;;;;9.38;1.70;;;10.60;99.90;;;;;;4766801;30;20094;-85
2023/03/23 05:57:29;;;;;;;9.82;1.92;;;10.60;99.90;;;;;;4769560;30;20471;-83
2023/03/23 05:59:55;;;;;;;9.25;2.20;;;10.60;99.90;;;;;;4767037;30;20048;-84
2023/03/23 06:02:23;;;;;;;9.68;2.10;;;10.50;99.90;;;;;;4766737;30;20054;-85
2023/03/23 06:04:49;;;;;;;10.50;2.58;;;10.60;99.90;;;;;;4752355;30;20082;-85
2023/03/23 06:07:14;;;;;;;11.35;1.92;;;10.60;99.90;;;;;;4737037;30;20068;-83
2023/03/23 06:09:41;;;;;;;7.72;1.67;;;10.60;99.90;;;;;;4764005;30;20052;-85
2023/03/23 06:12:13;;;;;;;6.40;1.50;;;10.50;99.90;;;;;;4764489;30;20036;-85
2023/03/23 06:14:39;;;;;;;8.27;1.52;;;10.60;99.90;;;;;;4746115;30;20071;-85
2023/03/23 06:17:05;;;;;;;7.82;1.92;;;10.50;99.90;;;;;;4743112;30;20078;-85
2023/03/23 06:19:31;;;;;;;7.13;1.23;;;10.50;99.90;;;;;;4749662;30;20067;-84
2023/03/23 06:21:57;;;;;;;9.57;1.88;;;10.50;99.90;;;;;;4765479;30;20083;-84
2023/03/23 06:24:22;;;;;;;8.07;1.83;;;10.50;99.90;;;;;;4765420;30;20106;-84
2023/03/23 06:26:49;;;;;;;10.20;2.03;;;10.60;99.90;;;;;;4766616;30;20033;-84
2023/03/23 06:29:16;;;;;;;10.52;2.53;;;10.90;99.90;;;;;;4750573;30;20080;-83
2023/03/23 06:31:48;;;;;;;9.68;1.73;;;10.70;99.90;;;;;;4761562;30;20048;-83
2023/03/23 06:34:14;;;;;;;10.85;2.00;;;10.70;99.90;;;;;;4735607;30;20515;-83
2023/03/23 06:36:40;;;;;;;14.07;1.90;;;10.80;99.90;;;;;;4766183;30;20048;-83
2023/03/23 06:39:06;;;;;;;14.60;2.03;;;10.70;99.90;;;;;;4767442;30;20048;-83
2023/03/23 06:41:32;;;;;;;10.05;2.25;;;10.70;99.90;;;;;;4764635;30;20048;-83
2023/03/23 06:43:59;;;;;;;14.48;2.63;;;10.80;99.90;;;;;;4766244;30;20048;-83
2023/03/23 06:46:25;;;;;;;15.80;2.88;;;10.80;99.90;;;;;;4766077;30;20048;-83
2023/03/23 06:48:51;;;;;;;15.57;3.13;;;10.80;99.90;;;;;;4766754;30;20489;-83
2023/03/23 06:51:17;;;;;;;19.55;3.42;;;10.80;99.90;;;;;;4764537;30;20177;-83
2023/03/23 06:53:43;;;;;;;15.82;2.90;;;10.90;99.90;;;;;;4763872;30;20048;-83
2023/03/23 06:56:10;;;;;;;20.70;4.70;;;10.90;99.90;;;;;;4763930;30;20051;-83
2023/03/23 06:58:36;;;;;;;15.18;2.60;;;10.90;99.90;;;;;;4734988;30;20067;-83
2023/03/23 07:01:01;;;;;;;14.18;3.40;;;11.00;99.90;;;;;;4762878;30;20578;-82
2023/03/23 07:03:27;;;;;;;16.05;3.17;;;11.00;99.90;;;;;;4761896;30;20035;-83
2023/03/23 07:05:54;;;;;;;15.90;3.00;;;11.10;99.90;;;;;;4766789;30;20040;-84
2023/03/23 07:08:20;;;;;;;16.95;3.00;;;11.10;99.90;;;;;;4745980;30;20041;-84
2023/03/23 07:10:46;;;;;;;20.92;4.38;;;11.10;99.90;;;;;;4752026;30;20054;-83
2023/03/23 07:13:11;;;;;;;16.33;3.97;;;11.10;99.90;;;;;;4763499;30;20059;-84
2023/03/23 07:15:38;;;;;;;19.25;3.72;;;11.20;99.90;;;;;;4750085;30;20040;-84
2023/03/23 07:18:04;;;;;;;23.77;4.40;;;11.20;99.90;;;;;;4764274;30;20051;-84
2023/03/23 07:20:30;;;;;;;16.98;3.45;;;11.20;99.90;;;;;;4766485;30;20052;-84
2023/03/23 07:22:56;;;;;;;15.50;3.80;;;11.30;99.90;;;;;;4765341;30;20659;-84
2023/03/23 07:25:21;;;;;;;19.60;3.40;;;11.30;99.90;;;;;;4763976;30;20127;-83
2023/03/23 07:27:47;;;;;;;18.15;3.88;;;11.30;99.90;;;;;;4734528;30;20080;-84
2023/03/23 07:30:14;;;;;;;18.17;3.65;;;11.30;99.90;;;;;;4766285;30;20102;-83
2023/03/23 07:32:41;;;;;;;19.75;3.53;;;11.40;99.90;;;;;;4765133;30;20567;-84
2023/03/23 07:35:07;;;;;;;15.30;3.65;;;11.60;99.90;;;;;;4765346;30;20078;-83
2023/03/23 07:37:33;;;;;;;17.67;3.25;;;11.80;99.90;;;;;;4764694;30;20048;-84
2023/03/23 07:39:59;;;;;;;21.30;4.30;;;11.80;99.90;;;;;;4764682;30;20135;-84
2023/03/23 07:42:25;;;;;;;17.33;4.07;;;12.00;99.90;;;;;;4765004;30;20459;-83
2023/03/23 07:44:50;;;;;;;19.88;4.43;;;12.00;99.90;;;;;;4766366;30;20044;-84
2023/03/23 07:47:17;;;;;;;16.80;3.67;;;12.00;99.90;;;;;;4762677;30;20047;-83
2023/03/23 07:49:43;;;;;;;19.90;4.35;;;12.00;99.90;;;;;;4764593;30;20751;-84
2023/03/23 07:52:10;;;;;;;19.00;3.78;;;12.00;99.90;;;;;;4764471;30;20044;-85
2023/03/23 07:54:36;;;;;;;18.38;3.55;;;12.00;99.90;;;;;;4764914;30;20040;-84
2023/03/23 07:57:02;;;;;;;19.35;3.10;;;12.00;99.90;;;;;;4765914;30;20109;-84
2023/03/23 07:59:28;;;;;;;23.10;4.38;;;11.90;99.90;;;;;;4764799;30;20040;-84
2023/03/23 08:01:53;;;;;;;21.00;4.13;;;11.90;99.90;;;;;;4763943;30;20806;-84
2023/03/23 08:04:19;;;;;;;23.17;3.70;;;12.00;99.90;;;;;;4764891;30;20047;-84
2023/03/23 08:06:45;;;;;;;24.83;4.43;;;12.00;99.90;;;;;;4763740;30;20043;-84
2023/03/23 08:09:11;;;;;;;26.00;5.80;;;11.90;99.90;;;;;;4751012;30;20121;-83
2023/03/23 08:11:38;;;;;;;19.98;4.75;;;11.90;99.90;;;;;;4749465;30;20051;-84
2023/03/23 08:14:05;;;;;;;26.08;4.85;;;11.90;99.90;;;;;;4766254;29;20097;-83
2023/03/23 08:16:31;;;;;;;21.13;3.75;;;12.00;99.90;;;;;;4764288;30;20052;-83
2023/03/23 08:18:56;;;;;;;24.48;5.18;;;11.90;99.90;;;;;;4749964;30;20055;-84
2023/03/23 08:21:22;;;;;;;21.95;4.82;;;12.00;99.90;;;;;;4735400;30;20056;-83
2023/03/23 08:23:48;;;;;;;26.92;4.47;;;12.00;99.90;;;;;;4764566;30;20836;-83
2023/03/23 08:26:14;;;;;;;22.20;4.30;;;12.10;99.90;;;;;;4765036;30;20051;-84
2023/03/23 08:28:39;;;;;;;17.63;3.85;;;12.10;99.90;;;;;;4763691;30;20484;-84
2023/03/23 08:31:10;;;;;;;23.88;5.80;;;12.10;99.90;;;;;;4765653;30;20046;-84
2023/03/23 08:33:36;;;;;;;27.90;5.07;;;12.10;99.90;;;;;;4735430;30;20048;-83
2023/03/23 08:36:02;;;;;;;20.48;4.60;;;12.60;99.90;;;;;;4760363;30;20056;-84
2023/03/23 08:38:29;;;;;;;24.00;4.53;;;12.20;99.90;;;;;;4762772;30;20187;-84
2023/03/23 08:41:00;;;;;;;25.48;4.97;;;12.10;99.90;;;;;;4761673;30;20396;-83
2023/03/23 08:43:27;;;;;;;21.98;4.75;;;12.20;99.90;;;;;;4761781;30;20866;-83
2023/03/23 08:45:53;;;;;;;16.48;4.35;;;12.20;99.90;;;;;;4764230;30;20052;-83
2023/03/23 08:48:19;;;;;;;28.42;5.18;;;12.40;99.90;;;;;;4763831;30;20116;-84
2023/03/23 08:50:45;;;;;;;23.58;5.05;;;12.60;99.90;;;;;;4761393;30;20041;-84
2023/03/23 08:53:11;;;;;;;24.17;5.38;;;12.60;99.90;;;;;;4762540;30;20044;-84
2023/03/23 08:55:38;;;;;;;24.33;5.38;;;12.70;99.90;;;;;;4762112;30;20044;-84
2023/03/23 08:58:04;;;;;;;19.52;4.35;;;12.60;99.90;;;;;;4763060;30;20048;-84
2023/03/23 09:00:30;;;;;;;24.23;4.55;;;12.60;99.90;;;;;;4762833;30;20108;-84
2023/03/23 09:02:56;;;;;;;20.40;3.83;;;12.40;99.90;;;;;;4763519;30;20120;-84
2023/03/23 09:05:26;;;;;;;26.17;5.13;;;12.70;99.90;;;;;;4763709;30;20518;-84
2023/03/23 09:07:54;;;;;;;19.85;4.68;;;12.20;99.90;;;;;;4766002;30;20052;-84
2023/03/23 09:10:20;;;;;;;21.80;5.22;;;12.20;99.90;;;;;;4746149;30;20059;-84
2023/03/23 09:12:46;;;;;;;20.98;4.88;;;12.30;99.90;;;;;;4744683;30;20072;-84
2023/03/23 09:15:15;;;;;;;18.85;4.47;;;12.60;99.90;;;;;;4762648;30;20066;-84
2023/03/23 09:17:44;;;;;;;21.60;4.55;;;12.90;99.90;;;;;;4747023;30;20044;-84
2023/03/23 09:20:13;;;;;;;25.95;4.38;;;13.30;99.90;;;;;;4748927;30;20061;-84
2023/03/23 09:22:40;;;;;;;20.95;4.13;;;13.50;99.90;;;;;;4748013;30;20130;-84
2023/03/23 09:25:07;;;;;;;20.90;5.50;;;13.90;99.90;;;;;;4761634;30;20158;-84
2023/03/23 09:27:33;;;;;;;23.58;4.90;;;13.90;99.90;;;;;;4760929;30;20512;-83
2023/03/23 09:30:00;;;;;;;21.98;4.28;;;14.00;99.90;;;;;;4763234;30;20119;-84
2023/03/23 09:32:26;;;;;;;15.75;3.65;;;13.90;99.90;;;;;;4731778;30;20040;-84
2023/03/23 09:34:54;;;;;;;20.35;4.80;;;13.90;99.90;;;;;;4762087;30;20040;-84
2023/03/23 09:37:20;;;;;;;19.40;3.95;;;14.30;99.90;;;;;;4760922;30;20048;-84
2023/03/23 09:39:45;;;;;;;20.45;3.97;;;13.80;99.90;;;;;;4740052;30;20169;-84
2023/03/23 09:42:38;;;;;;;16.50;4.05;;;13.80;99.90;;;;;;4763545;30;20046;-84
2023/03/23 09:45:12;;;;;;;17.40;3.25;;;13.60;99.90;;;;;;4719562;30;20040;-84
2023/03/23 09:48:12;;;;;;;18.00;3.42;;;13.60;99.90;;;;;;4764206;30;20115;-83
2023/03/23 09:50:41;;;;;;;18.17;3.50;;;13.70;99.90;;;;;;4747392;30;20059;-84
2023/03/23 09:53:18;;;;;;;21.05;5.00;;;13.80;99.90;;;;;;4762584;30;20097;-83
2023/03/23 09:55:45;;;;;;;17.67;4.28;;;14.00;99.90;;;;;;4745911;30;20083;-84
2023/03/23 09:58:25;;;;;;;17.02;4.05;;;14.00;99.90;;;;;;4761167;30;20048;-83
2023/03/23 10:01:13;;;;;;;11.85;2.72;;;14.00;99.90;;;;;;4760764;30;20044;-84
2023/03/23 10:03:41;;;;;;;17.95;4.35;;;14.10;99.90;;;;;;4761978;30;20102;-84
2023/03/23 10:06:13;;;;;;;16.25;3.47;;;14.40;99.90;;;;;;4763235;30;20396;-83
2023/03/23 10:08:46;;;;;;;20.65;3.83;;;14.80;99.90;;;;;;4763155;30;20041;-83
2023/03/23 10:11:27;;;;;;;19.25;4.28;;;14.80;99.90;;;;;;4747091;30;20052;-83
2023/03/23 10:14:19;;;;;;;24.40;5.25;;;14.70;99.90;;;;;;4747416;30;20139;-84
2023/03/23 10:17:09;;;;;;;12.80;3.85;;;14.80;99.90;;;;;;4761284;30;20110;-83
2023/03/23 10:20:00;;;;;;;13.70;2.97;;;15.00;99.90;;;;;;4762719;30;20040;-83
2023/03/23 10:22:33;;;;;;;17.95;4.90;;;15.10;99.90;;;;;;4760592;30;20654;-83
2023/03/23 10:25:11;;;;;;;18.10;3.35;;;15.10;99.90;;;;;;4760818;30;20079;-83
2023/03/23 10:27:46;;;;;;;16.92;3.13;;;15.00;99.90;;;;;;4745810;30;20051;-84
2023/03/23 10:30:18;;;;;;;11.95;3.03;;;15.00;99.90;;;;;;4745027;30;20083;-84
2023/03/23 10:33:03;;;;;;;13.82;2.80;;;14.60;99.90;;;;;;4746639;30;20048;-83
2023/03/23 10:36:00;;;;;;;15.10;2.70;;;14.60;99.90;;;;;;4758451;30;20044;-83
2023/03/23 10:38:37;;;;;;;8.90;2.25;;;14.80;99.90;;;;;;4735749;30;20316;-83
2023/03/23 10:41:11;;;;;;;12.77;3.08;;;14.90;99.90;;;;;;4765030;30;20052;-83
2023/03/23 10:43:39;;;;;;;12.55;3.22;;;14.90;99.90;;;;;;4765316;30;20474;-83
2023/03/23 10:46:26;;;;;;;8.88;2.72;;;14.70;99.90;;;;;;4765702;30;20043;-83
2023/03/23 10:48:53;;;;;;;9.60;2.17;;;14.50;99.90;;;;;;4764538;30;20124;-83
2023/03/23 10:51:23;;;;;;;10.70;2.80;;;14.50;99.90;;;;;;4762617;30;20163;-83
2023/03/23 10:53:57;;;;;;;9.48;1.98;;;14.50;99.90;;;;;;4766848;30;20044;-83
2023/03/23 10:56:28;;;;;;;10.73;3.22;;;14.70;99.90;;;;;;4762495;30;20059;-83
2023/03/23 10:58:55;;;;;;;8.90;1.83;;;15.10;99.90;;;;;;4749064;30;20100;-84
2023/03/23 11:01:30;;;;;;;10.25;1.95;;;15.20;99.90;;;;;;4764958;30;20123;-83
2023/03/23 11:03:56;;;;;;;9.63;2.40;;;15.40;99.90;;;;;;4764826;30;20055;-84
2023/03/23 11:06:28;;;;;;;11.38;3.13;;;15.40;99.90;;;;;;4749457;30;20056;-84
2023/03/23 11:09:03;;;;;;;12.65;2.70;;;15.50;99.90;;;;;;4762136;30;20055;-83
2023/03/23 11:11:31;;;;;;;8.80;2.50;;;15.50;99.90;;;;;;4757701;30;20052;-84
2023/03/23 11:14:02;;;;;;;10.40;2.88;;;15.60;99.90;;;;;;4761473;30;20107;-83
2023/03/23 11:16:30;;;;;;;13.02;3.75;;;15.40;99.90;;;;;;4763863;30;20044;-84
2023/03/23 11:18:59;;;;;;;11.70;3.17;;;15.00;99.90;;;;;;4764069;30;20535;-83
2023/03/23 11:21:26;;;;;;;9.52;2.13;;;14.80;99.90;;;;;;4748947;30;20056;-83
2023/03/23 11:23:59;;;;;;;12.65;2.47;;;14.90;99.90;;;;;;4762737;30;20045;-83
2023/03/23 11:26:31;;;;;;;9.82;2.40;;;15.10;99.90;;;;;;4763640;30;20045;-83
2023/03/23 11:29:05;;;;;;;12.23;3.45;;;15.00;99.90;;;;;;4767892;30;20087;-84
2023/03/23 11:31:39;;;;;;;11.10;2.63;;;15.00;99.90;;;;;;4749380;30;20144;-83
2023/03/23 11:34:10;;;;;;;13.45;2.80;;;15.00;99.90;;;;;;4763009;30;20070;-83
2023/03/23 11:36:40;;;;;;;10.68;3.03;;;15.40;99.90;;;;;;4748934;30;20048;-82
2023/03/23 11:39:27;;;;;;;10.25;2.72;;;15.60;99.90;;;;;;4749620;30;20432;-83
2023/03/23 11:41:53;;;;;;;8.45;2.13;;;15.80;99.90;;;;;;4762172;30;20052;-83
2023/03/23 11:44:24;;;;;;;8.80;1.75;;;16.10;99.90;;;;;;4748092;30;20044;-84
2023/03/23 11:46:53;;;;;;;8.23;2.25;;;16.10;99.90;;;;;;4763831;30;20097;-84
2023/03/23 11:49:41;;;;;;;10.27;2.50;;;16.10;99.90;;;;;;4760868;30;20043;-84
2023/03/23 11:52:25;;;;;;;10.07;2.50;;;16.20;99.90;;;;;;4748475;30;20544;-83
2023/03/23 11:55:05;;;;;;;10.55;2.85;;;16.20;99.90;;;;;;4763297;30;20040;-84
2023/03/23 11:57:30;;;;;;;10.18;2.03;;;16.40;99.90;;;;;;4748826;30;20067;-84
2023/03/23 12:00:00;;;;;;;8.48;1.98;;;16.40;99.90;;;;;;4767618;30;20052;-84
2023/03/23 12:02:32;;;;;;;11.25;1.90;;;16.30;99.90;;;;;;4751095;30;20044;-83
2023/03/23 12:05:28;;;;;;;8.63;2.72;;;16.20;99.90;;;;;;4749660;30;20060;-83
2023/03/23 12:08:06;;;;;;;13.43;2.15;;;16.40;99.90;;;;;;4748232;30;20094;-84
2023/03/23 12:10:38;;;;;;;11.35;2.90;;;16.50;99.90;;;;;;4763529;30;20511;-84
2023/03/23 12:13:22;;;;;;;9.13;1.83;;;16.20;99.90;;;;;;4763306;30;20075;-83
2023/03/23 12:15:53;;;;;;;13.32;3.83;;;15.90;99.90;;;;;;4763565;30;20048;-83
2023/03/23 12:18:25;;;;;;;11.77;2.47;;;15.60;99.90;;;;;;4762535;30;20047;-83
2023/03/23 12:21:35;;;;;;;11.23;2.38;;;15.40;99.90;;;;;;4763270;30;20131;-83
2023/03/23 12:24:15;;;;;;;11.23;2.45;;;15.30;99.90;;;;;;4761858;30;20720;-83
2023/03/23 12:26:52;;;;;;;14.52;2.97;;;15.20;99.90;;;;;;4765277;30;20048;-83
2023/03/23 12:29:39;;;;;;;11.40;2.90;;;15.60;99.90;;;;;;4762757;30;20036;-83
2023/03/23 12:32:30;;;;;;;11.15;2.80;;;15.90;99.90;;;;;;4747974;30;20539;-83
2023/03/23 12:35:14;;;;;;;11.65;2.67;;;16.10;99.90;;;;;;4748420;30;20440;-83
2023/03/23 12:38:10;;;;;;;15.27;4.35;;;16.40;99.90;;;;;;4764388;30;20040;-84
2023/03/23 12:41:12;;;;;;;11.93;2.67;;;16.30;99.90;;;;;;4761570;30;20068;-83
2023/03/23 12:43:49;;;;;;;12.30;2.55;;;16.30;99.90;;;;;;4746181;30;20059;-83
2023/03/23 12:46:21;;;;;;;6.55;2.25;;;16.20;99.90;;;;;;4761484;30;20059;-83
2023/03/23 12:49:15;;;;;;;12.60;2.65;;;16.20;99.90;;;;;;4747519;30;20548;-84
2023/03/23 12:51:57;;;;;;;12.55;2.95;;;16.00;99.90;;;;;;4746939;30;20062;-85
2023/03/23 12:54:34;;;;;;;9.75;2.35;;;16.00;99.90;;;;;;4762849;30;20055;-84
2023/03/23 12:57:22;;;;;;;16.48;3.50;;;16.10;99.90;;;;;;4747700;30;20431;-84
2023/03/23 12:59:57;;;;;;;11.02;3.03;;;16.20;99.90;;;;;;4760774;30;20055;-84
2023/03/23 13:02:34;;;;;;;9.70;2.72;;;16.20;99.90;;;;;;4762030;30;20419;-83
2023/03/23 13:05:24;;;;;;;11.50;3.20;;;16.10;99.90;;;;;;4748753;30;20044;-84
2023/03/23 13:08:15;;;;;;;11.95;3.67;;;15.90;99.90;;;;;;4747873;30;20048;-84
2023/03/23 13:10:48;;;;;;;13.50;3.00;;;15.60;99.90;;;;;;4748098;30;20048;-84
2023/03/23 13:13:19;;;;;;;13.98;2.47;;;15.40;99.90;;;;;;4750397;30;20054;-84
2023/03/23 13:16:00;;;;;;;16.60;3.83;;;15.50;99.90;;;;;;4759819;30;20106;-85
2023/03/23 13:18:46;;;;;;;13.05;3.40;;;15.70;99.90;;;;;;4736376;30;20500;-85
2023/03/23 13:21:30;;;;;;;12.55;3.30;;;15.80;99.90;;;;;;4764508;30;20131;-84
2023/03/23 13:24:04;;;;;;;12.77;3.47;;;15.70;99.90;;;;;;4761948;30;20117;-85
2023/03/23 13:26:31;;;;;;;14.60;2.95;;;15.70;99.90;;;;;;4760819;30;20033;-85
2023/03/23 13:28:58;;;;;;;10.95;2.63;;;15.60;99.90;;;;;;4747056;30;20040;-85
2023/03/23 13:31:42;;;;;;;11.00;3.47;;;15.60;99.90;;;;;;4747724;30;20075;-85
2023/03/23 13:34:17;;;;;;;10.93;2.80;;;15.30;99.90;;;;;;4763462;30;20636;-85
2023/03/23 13:36:53;;;;;;;19.13;3.40;;;15.20;99.90;;;;;;4761603;30;20040;-85
2023/03/23 13:39:28;;;;;;;10.05;2.15;;;15.40;99.90;;;;;;4743698;30;20307;-86
2023/03/23 13:42:20;;;;;;;14.60;2.97;;;15.10;99.90;;;;;;4760678;30;20052;-86
2023/03/23 13:44:49;;;;;;;14.57;3.03;;;15.80;99.90;;;;;;4759684;30;20047;-84
2023/03/23 13:47:20;;;;;;;11.40;2.80;;;15.00;99.90;;;;;;4746331;30;20040;-84
2023/03/23 13:49:55;;;;;;;14.02;3.20;;;14.90;99.90;;;;;;4746857;30;20625;-84
2023/03/23 13:52:36;;;;;;;12.23;3.20;;;14.80;99.90;;;;;;4747917;30;20040;-84
2023/03/23 13:55:27;;;;;;;12.27;2.78;;;14.80;99.90;;;;;;4760849;30;20056;-85
2023/03/23 13:58:12;;;;;;;12.35;2.58;;;14.70;99.90;;;;;;4746621;30;20123;-85
2023/03/23 14:00:47;;;;;;;15.18;3.00;;;14.60;99.90;;;;;;4762570;30;20055;-85
2023/03/23 14:03:18;;;;;;;11.00;2.55;;;14.60;99.90;;;;;;4757687;30;20060;-84
2023/03/23 14:06:00;;;;;;;12.48;3.05;;;14.60;99.90;;;;;;4746589;30;20044;-84
2023/03/23 14:08:28;;;;;;;12.23;2.50;;;14.70;99.90;;;;;;4748433;30;20180;-84
2023/03/23 14:11:03;;;;;;;17.77;2.97;;;14.70;99.90;;;;;;4761115;30;20056;-84
2023/03/23 14:13:47;;;;;;;15.82;3.70;;;14.60;99.90;;;;;;4766395;30;20048;-84
2023/03/23 14:16:26;;;;;;;13.68;3.15;;;14.50;99.90;;;;;;4749021;30;20048;-84
2023/03/23 14:18:59;;;;;;;16.35;3.35;;;14.60;99.90;;;;;;4765664;30;20056;-85
2023/03/23 14:21:36;;;;;;;11.13;2.88;;;14.70;99.90;;;;;;4763671;30;20048;-84
2023/03/23 14:24:40;;;;;;;11.27;2.55;;;14.70;99.90;;;;;;4765419;30;20036;-84
2023/03/23 14:27:21;;;;;;;14.43;3.03;;;14.60;99.90;;;;;;4731376;30;20061;-85
2023/03/23 14:30:02;;;;;;;14.85;3.25;;;14.50;99.90;;;;;;4735290;30;20049;-85
2023/03/23 14:32:32;;;;;;;18.13;3.55;;;14.40;99.90;;;;;;4734782;30;20048;-85
2023/03/23 14:34:58;;;;;;;15.65;2.55;;;14.40;99.90;;;;;;4764594;30;20499;-84
2023/03/23 14:37:25;;;;;;;17.35;3.50;;;14.30;99.90;;;;;;4765055;30;20040;-84
2023/03/23 14:39:56;;;;;;;18.10;3.67;;;14.20;99.90;;;;;;4765420;30;20040;-84
2023/03/23 14:42:31;;;;;;;13.10;2.72;;;14.20;99.90;;;;;;4748764;30;20544;-87
2023/03/23 14:44:58;;;;;;;12.32;2.80;;;14.30;99.90;;;;;;4766172;30;20044;-84
2023/03/23 14:47:33;;;;;;;14.90;3.50;;;13.70;99.90;;;;;;4750950;30;20051;-83
2023/03/23 14:50:04;;;;;;;12.93;3.13;;;14.30;99.90;;;;;;4764621;30;20040;-86
2023/03/23 14:52:33;;;;;;;12.30;3.03;;;14.70;99.90;;;;;;4763550;30;20044;-84
2023/03/23 14:55:20;;;;;;;11.38;3.20;;;14.70;99.90;;;;;;4762099;29;20504;-84
2023/03/23 14:57:47;;;;;;;11.70;2.17;;;15.20;99.90;;;;;;4747405;30;20048;-85
2023/03/23 15:00:24;;;;;;;8.35;2.33;;;15.00;99.90;;;;;;4765242;30;20060;-84
2023/03/23 15:02:54;;;;;;;12.88;2.90;;;15.10;99.90;;;;;;4750545;30;20396;-83
2023/03/23 15:05:31;;;;;;;12.07;2.80;;;15.20;99.90;;;;;;4768487;30;20075;-83
2023/03/23 15:08:05;;;;;;;9.93;2.90;;;15.20;99.90;;;;;;4765635;30;20047;-83
2023/03/23 15:10:31;;;;;;;9.38;2.50;;;15.10;99.90;;;;;;4764798;30;20094;-84
2023/03/23 15:12:59;;;;;;;14.20;3.28;;;15.00;99.90;;;;;;4765720;30;20056;-85
2023/03/23 15:15:36;;;;;;;10.60;2.08;;;15.00;99.90;;;;;;4751038;30;20108;-84
2023/03/23 15:18:03;;;;;;;12.40;2.67;;;15.00;99.90;;;;;;4748498;30;20048;-83
2023/03/23 15:20:43;;;;;;;12.50;2.65;;;14.90;99.90;;;;;;4765759;30;20127;-84
2023/03/23 15:23:16;;;;;;;9.68;2.50;;;15.10;99.90;;;;;;4767144;30;20562;-84
2023/03/23 15:25:50;;;;;;;12.18;2.35;;;14.90;99.90;;;;;;4753929;30;20048;-88
2023/03/23 15:28:39;;;;;;;12.73;2.75;;;14.80;99.90;;;;;;4764059;30;20036;-84
2023/03/23 15:31:05;;;;;;;13.40;2.85;;;14.70;99.90;;;;;;4766550;30;20055;-84
2023/03/23 15:33:37;;;;;;;15.23;3.13;;;14.70;99.90;;;;;;4764831;30;20036;-84
2023/03/23 15:36:24;;;;;;;12.57;2.38;;;14.60;99.90;;;;;;4765315;30;20063;-85
2023/03/23 15:38:50;;;;;;;14.02;2.92;;;14.50;99.90;;;;;;4763039;30;20044;-84
2023/03/23 15:41:29;;;;;;;9.82;2.05;;;14.50;99.90;;;;;;4764309;30;20841;-84
2023/03/23 15:43:58;;;;;;;11.75;3.08;;;14.50;99.90;;;;;;4747361;30;20087;-85
2023/03/23 15:46:26;;;;;;;13.65;2.15;;;14.50;99.90;;;;;;4762569;30;20071;-84
2023/03/23 15:48:57;;;;;;;10.48;2.63;;;14.40;99.90;;;;;;4751566;30;20125;-85
2023/03/23 15:51:27;;;;;;;9.55;2.05;;;14.40;99.90;;;;;;4748053;30;20052;-86
2023/03/23 15:53:55;;;;;;;16.77;2.83;;;14.40;99.90;;;;;;4769126;30;20048;-87
2023/03/23 15:56:22;;;;;;;10.18;2.53;;;14.30;99.90;;;;;;4735837;30;20078;-85
2023/03/23 15:58:48;;;;;;;11.30;2.53;;;14.30;99.90;;;;;;4762161;30;20137;-84
2023/03/23 16:01:18;;;;;;;12.25;2.60;;;14.30;99.90;;;;;;4761245;30;20544;-85
2023/03/23 16:03:55;;;;;;;12.75;2.53;;;14.30;99.90;;;;;;4744987;30;20062;-85
2023/03/23 16:06:25;;;;;;;11.35;2.17;;;14.20;99.90;;;;;;4747585;30;20044;-86
2023/03/23 16:08:51;;;;;;;11.70;2.58;;;14.10;99.90;;;;;;4735961;30;20036;-85
2023/03/23 16:11:17;;;;;;;9.60;2.17;;;14.10;99.90;;;;;;4764171;30;20040;-84
2023/03/23 16:13:44;;;;;;;15.95;3.22;;;14.10;99.90;;;;;;4770730;30;20120;-85
2023/03/23 16:16:33;;;;;;;17.17;3.00;;;14.00;99.90;;;;;;4761647;30;20054;-85
2023/03/23 16:18:59;;;;;;;17.63;2.72;;;13.90;99.90;;;;;;4744557;30;20127;-88
2023/03/23 16:21:25;;;;;;;16.35;2.97;;;13.90;99.90;;;;;;4760903;30;20060;-85
2023/03/23 16:23:51;;;;;;;16.35;3.03;;;13.80;99.90;;;;;;4762102;30;20054;-85
2023/03/23 16:26:17;;;;;;;12.65;2.03;;;13.80;99.90;;;;;;4762126;30;20048;-85
2023/03/23 16:28:43;;;;;;;15.68;2.58;;;13.70;99.90;;;;;;4762484;30;20040;-85
2023/03/23 16:31:12;;;;;;;12.90;2.22;;;13.70;99.90;;;;;;4763869;30;20163;-85
2023/03/23 16:33:38;;;;;;;17.38;3.47;;;13.70;99.90;;;;;;4764141;30;20051;-88
2023/03/23 16:36:04;;;;;;;14.98;2.78;;;13.70;99.90;;;;;;4760968;30;20048;-85
2023/03/23 16:38:30;;;;;;;11.20;3.28;;;13.70;99.90;;;;;;4763540;30;20048;-86
2023/03/23 16:40:56;;;;;;;13.68;2.90;;;13.60;99.90;;;;;;4763529;30;20097;-84
2023/03/23 16:43:37;;;;;;;10.25;2.15;;;13.60;99.90;;;;;;4763662;30;20044;-84
2023/03/23 16:46:05;;;;;;;12.10;3.17;;;13.60;99.90;;;;;;4764215;30;20051;-86
2023/03/23 16:48:31;;;;;;;15.70;2.50;;;13.60;99.90;;;;;;4758979;30;20133;-85
2023/03/23 16:51:14;;;;;;;11.05;2.28;;;13.60;99.90;;;;;;4752913;30;20051;-84
2023/03/23 16:53:54;;;;;;;18.55;4.53;;;14.00;99.90;;;;;;4728439;30;20856;-86
2023/03/23 17:04:51;;;;;;;11.88;2.65;;;13.30;99.90;;;;;;4747073;30;20140;-86
2023/03/23 17:08:01;;;;;;;10.35;2.47;;;13.00;99.90;;;;;;4710865;30;20181;-85
2023/03/23 17:11:42;;;;;;;13.45;2.90;;;13.20;99.90;;;;;;4714633;30;20066;-85
2023/03/23 17:17:49;;;;;;;12.55;2.75;;;13.00;99.90;;;;;;4722066;30;20764;-85
2023/03/23 17:20:25;;;;;;;12.20;3.17;;;13.00;99.90;;;;;;4713523;30;20057;-85
2023/03/23 17:26:50;;;;;;;14.57;3.75;;;12.90;99.90;;;;;;4727972;30;20039;-85
2023/03/23 17:29:15;;;;;;;10.27;2.28;;;12.80;99.90;;;;;;4728251;30;20045;-84
2023/03/23 17:31:41;;;;;;;12.98;2.42;;;12.80;99.90;;;;;;4726042;30;20224;-85
2023/03/23 17:34:07;;;;;;;9.38;2.75;;;12.70;99.90;;;;;;4749131;30;20044;-84
2023/03/23 17:36:32;;;;;;;11.18;1.98;;;12.70;99.90;;;;;;4745333;30;20044;-85
2023/03/23 17:38:58;;;;;;;16.90;2.80;;;12.70;99.90;;;;;;4760677;30;20052;-84
2023/03/23 17:41:24;;;;;;;11.50;2.55;;;12.70;99.90;;;;;;4743966;30;20090;-84
2023/03/23 17:43:50;;;;;;;9.80;2.53;;;13.00;99.90;;;;;;4759524;30;20108;-84
2023/03/23 17:46:15;;;;;;;5.70;1.23;;;12.60;99.90;;;;;;4761105;30;20068;-85
2023/03/23 17:48:41;;;;;;;8.20;1.90;;;12.60;99.90;;;;;;4758065;30;20166;-84
2023/03/23 17:51:07;;;;;;;5.32;1.20;;;12.50;99.90;;;;;;4756672;30;20123;-84
2023/03/23 17:53:36;;;;;;;7.20;1.05;;;12.50;99.90;;;;;;4745739;30;20060;-84
2023/03/23 17:56:04;;;;;;;6.00;1.33;;;12.40;99.90;;;;;;4759161;30;20052;-84
2023/03/23 17:58:29;;;;;;;8.18;1.77;;;12.40;99.90;;;;;;4760494;30;20048;-84
2023/03/23 18:00:55;;;;;;;5.88;1.30;;;12.40;99.90;;;;;;4760269;30;20039;-84
2023/03/23 18:03:22;;;;;;;6.18;1.60;;;12.40;99.90;;;;;;4729566;30;20044;-83
2023/03/23 18:05:49;;;;;;;7.45;1.50;;;12.40;99.90;;;;;;4762802;30;20135;-84
2023/03/23 18:08:16;;;;;;;5.30;1.40;;;12.40;99.90;;;;;;4766093;30;20613;-84
2023/03/23 18:10:42;;;;;;;7.43;1.65;;;12.30;99.90;;;;;;4764215;30;20056;-85
2023/03/23 18:13:09;;;;;;;7.25;1.50;;;12.30;99.90;;;;;;4745094;30;20060;-84
2023/03/23 18:15:36;;;;;;;8.48;1.60;;;12.20;99.90;;;;;;4757602;30;20051;-84
2023/03/23 18:18:03;;;;;;;7.00;2.05;;;12.20;99.90;;;;;;4761914;30;20061;-85
2023/03/23 18:20:31;;;;;;;9.98;2.42;;;12.20;99.90;;;;;;4743056;30;20080;-84
2023/03/23 18:22:57;;;;;;;7.53;1.52;;;12.20;99.90;;;;;;4753044;30;20040;-84
2023/03/23 18:25:24;;;;;;;12.40;2.63;;;12.20;99.90;;;;;;4757510;30;20036;-84
2023/03/23 18:27:49;;;;;;;11.95;2.05;;;12.10;99.90;;;;;;4727589;30;20048;-84
2023/03/23 18:30:15;;;;;;;8.65;2.00;;;12.20;99.90;;;;;;4728140;30;20058;-84
2023/03/23 18:32:41;;;;;;;7.53;1.92;;;12.20;99.90;;;;;;4756418;30;20158;-84
2023/03/23 18:35:09;;;;;;;8.57;1.90;;;12.10;99.90;;;;;;4759974;30;20052;-82
2023/03/23 18:37:38;;;;;;;8.98;1.92;;;12.10;99.90;;;;;;4757522;30;20048;-83
2023/03/23 18:40:04;;;;;;;11.73;2.38;;;12.10;99.90;;;;;;4757225;30;20044;-84
2023/03/23 18:42:30;;;;;;;7.85;1.83;;;12.10;99.90;;;;;;4756676;30;20147;-85
2023/03/23 18:44:58;;;;;;;10.32;1.98;;;12.10;99.90;;;;;;4726366;30;20040;-84
2023/03/23 18:47:24;;;;;;;9.07;1.83;;;12.10;99.90;;;;;;4741032;30;20040;-85
2023/03/23 18:49:53;;;;;;;14.13;3.45;;;12.00;99.90;;;;;;4756766;30;20043;-84
2023/03/23 18:52:24;;;;;;;10.45;3.10;;;12.10;99.90;;;;;;4753430;30;20126;-85